Time;durP1;ratioP1;P1;durP2;ratioP2;P2;SDS_P1;SDS_P2;PMS_P1;PMS_P2;Temp;Humidity;BMP_temperature;BMP_pressure;BME280_temperature;BME280_humidity;BME280_pressure;Samples;Min_cycle;Max_cycle;Signal;HPM_P1;HPM_P2
2022/03/21 00:01:26;;;;;;;6.63;5.57;;;;;;;;;;5074741;28;20196;-84
2022/03/21 00:03:53;;;;;;;8.75;5.95;;;;;;;;;;5075160;28;20228;-84
2022/03/21 00:06:21;;;;;;;5.85;4.65;;;;;;;;;;5074854;28;20256;-83
2022/03/21 00:08:48;;;;;;;5.82;4.55;;;;;;;;;;5075141;28;20226;-85
2022/03/21 00:11:17;;;;;;;4.38;4.07;;;;;;;;;;5074467;28;20212;-84
2022/03/21 00:13:44;;;;;;;4.10;3.80;;;;;;;;;;5075003;28;20217;-83
2022/03/21 00:16:12;;;;;;;4.85;4.32;;;;;;;;;;5074873;28;20200;-84
2022/03/21 00:18:40;;;;;;;5.15;3.85;;;;;;;;;;5075866;28;20619;-83
2022/03/21 00:21:07;;;;;;;4.28;3.90;;;;;;;;;;5074696;28;20197;-85
2022/03/21 00:23:35;;;;;;;4.57;4.18;;;;;;;;;;5074838;28;20221;-83
2022/03/21 00:26:03;;;;;;;5.20;4.72;;;;;;;;;;5074495;28;20232;-84
2022/03/21 00:28:32;;;;;;;5.10;4.60;;;;;;;;;;5075391;28;20204;-84
2022/03/21 00:30:59;;;;;;;5.45;4.95;;;;;;;;;;5074881;28;20193;-84
2022/03/21 00:33:26;;;;;;;5.13;4.63;;;;;;;;;;5074883;28;20264;-83
2022/03/21 00:35:54;;;;;;;6.63;4.57;;;;;;;;;;5074658;28;20197;-84
2022/03/21 00:38:22;;;;;;;6.05;3.60;;;;;;;;;;5075060;28;20209;-84
2022/03/21 00:40:50;;;;;;;4.68;4.28;;;;;;;;;;5075001;28;20667;-84
2022/03/21 00:43:20;;;;;;;4.95;4.22;;;;;;;;;;5074720;28;20686;-83
2022/03/21 00:45:50;;;;;;;3.90;3.60;;;;;;;;;;5074816;28;20224;-84
2022/03/21 00:48:17;;;;;;;3.97;3.65;;;;;;;;;;5074557;28;20708;-86
2022/03/21 00:50:45;;;;;;;4.70;4.18;;;;;;;;;;5074543;28;20236;-83
2022/03/21 00:53:12;;;;;;;4.10;3.80;;;;;;;;;;5074280;28;20311;-84
2022/03/21 00:55:39;;;;;;;4.43;3.90;;;;;;;;;;5075505;28;20337;-85
2022/03/21 00:58:07;;;;;;;4.43;3.90;;;;;;;;;;5074456;28;20668;-83
2022/03/21 01:00:34;;;;;;;4.60;4.20;;;;;;;;;;5074881;28;20200;-83
2022/03/21 01:03:03;;;;;;;4.38;3.97;;;;;;;;;;5074648;28;20223;-85
2022/03/21 01:05:31;;;;;;;4.10;3.75;;;;;;;;;;5074129;28;20259;-84
2022/03/21 01:07:59;;;;;;;6.15;4.75;;;;;;;;;;5075005;28;20618;-84
2022/03/21 01:10:29;;;;;;;4.50;4.10;;;;;;;;;;5073899;28;20201;-84
2022/03/21 01:12:57;;;;;;;4.65;4.22;;;;;;;;;;5074473;28;20232;-83
2022/03/21 01:15:26;;;;;;;4.53;4.13;;;;;;;;;;5073968;28;20197;-84
2022/03/21 01:17:56;;;;;;;4.15;3.75;;;;;;;;;;5074292;28;20201;-84
2022/03/21 01:20:25;;;;;;;4.85;4.45;;;;;;;;;;5074211;28;20209;-84
2022/03/21 01:22:52;;;;;;;4.03;3.40;;;;;;;;;;5074157;28;20220;-85
2022/03/21 01:25:20;;;;;;;3.70;3.10;;;;;;;;;;5074190;28;20262;-84
2022/03/21 01:27:48;;;;;;;3.65;3.35;;;;;;;;;;5074185;28;20225;-84
2022/03/21 01:30:16;;;;;;;3.17;2.88;;;;;;;;;;5073597;28;20215;-83
2022/03/21 01:32:45;;;;;;;3.92;2.92;;;;;;;;;;5073605;28;20764;-84
2022/03/21 01:35:15;;;;;;;3.03;2.70;;;;;;;;;;5074190;28;20796;-84
2022/03/21 01:37:44;;;;;;;3.97;3.63;;;;;;;;;;5077907;28;20609;-84
2022/03/21 01:40:12;;;;;;;3.17;2.88;;;;;;;;;;5077718;28;20212;-84
2022/03/21 01:42:43;;;;;;;2.90;2.70;;;;;;;;;;5077509;28;20727;-83
2022/03/21 01:45:12;;;;;;;3.28;2.97;;;;;;;;;;5078281;28;20291;-84
2022/03/21 01:47:39;;;;;;;5.18;4.20;;;;;;;;;;5077480;28;20248;-84
2022/03/21 01:50:08;;;;;;;4.30;3.88;;;;;;;;;;5077651;28;20227;-84
2022/03/21 01:52:37;;;;;;;4.30;3.90;;;;;;;;;;5077482;28;20236;-83
2022/03/21 01:57:54;;;;;;;3.72;3.42;;;;;;;;;;5077401;28;20200;-84
2022/03/21 02:00:22;;;;;;;3.50;3.20;;;;;;;;;;5077336;28;20231;-83
2022/03/21 02:02:49;;;;;;;3.72;3.40;;;;;;;;;;5076762;28;20253;-85
2022/03/21 02:05:16;;;;;;;3.20;2.90;;;;;;;;;;5077350;28;20588;-84
2022/03/21 02:07:44;;;;;;;3.50;3.20;;;;;;;;;;5076659;28;20224;-83
2022/03/21 02:10:13;;;;;;;4.28;3.70;;;;;;;;;;5076954;28;20590;-85
2022/03/21 02:12:41;;;;;;;3.45;3.15;;;;;;;;;;5076429;28;20221;-84
2022/03/21 02:15:10;;;;;;;4.03;3.22;;;;;;;;;;5077316;28;20193;-83
2022/03/21 02:17:42;;;;;;;4.88;4.43;;;;;;;;;;5077174;28;20297;-84
2022/03/21 02:20:10;;;;;;;4.50;4.10;;;;;;;;;;5077507;28;20716;-84
2022/03/21 02:22:54;;;;;;;4.20;3.67;;;;;;;;;;5076561;28;20602;-84
2022/03/21 02:25:31;;;;;;;3.60;3.30;;;;;;;;;;5076884;28;20181;-83
2022/03/21 02:28:01;;;;;;;3.50;3.20;;;;;;;;;;5077185;28;20266;-84
2022/03/21 02:30:30;;;;;;;4.03;3.60;;;;;;;;;;5077103;28;20205;-83
2022/03/21 02:32:58;;;;;;;3.70;3.40;;;;;;;;;;5076733;28;20338;-84
2022/03/21 02:35:27;;;;;;;3.85;3.55;;;;;;;;;;5077113;28;20201;-84
2022/03/21 02:37:57;;;;;;;3.38;3.08;;;;;;;;;;5076790;28;20250;-84
2022/03/21 02:40:25;;;;;;;3.38;3.08;;;;;;;;;;5076772;28;20561;-84
2022/03/21 02:42:53;;;;;;;3.70;3.28;;;;;;;;;;5076373;28;20716;-83
2022/03/21 02:45:21;;;;;;;4.25;3.85;;;;;;;;;;5076394;28;20232;-83
2022/03/21 02:47:49;;;;;;;3.35;3.05;;;;;;;;;;5075468;28;20225;-84
2022/03/21 02:50:19;;;;;;;4.30;3.53;;;;;;;;;;5076678;28;20208;-83
2022/03/21 02:52:49;;;;;;;3.58;3.28;;;;;;;;;;5076338;28;20708;-84
2022/03/21 02:55:16;;;;;;;3.55;3.22;;;;;;;;;;5076689;28;20196;-83
2022/03/21 02:57:44;;;;;;;3.28;2.95;;;;;;;;;;5076009;28;20265;-83
2022/03/21 03:00:14;;;;;;;3.58;3.20;;;;;;;;;;5076401;28;20657;-84
2022/03/21 03:02:41;;;;;;;3.95;3.35;;;;;;;;;;5076044;28;20227;-83
2022/03/21 03:05:09;;;;;;;3.85;3.55;;;;;;;;;;5076278;28;20231;-84
2022/03/21 03:07:36;;;;;;;3.95;3.53;;;;;;;;;;5075961;28;20221;-84
2022/03/21 03:10:05;;;;;;;3.53;3.22;;;;;;;;;;5076479;28;20272;-83
2022/03/21 03:12:33;;;;;;;4.13;3.75;;;;;;;;;;5075883;28;20213;-83
2022/03/21 03:15:00;;;;;;;3.85;3.53;;;;;;;;;;5076514;28;20376;-83
2022/03/21 03:17:29;;;;;;;2.85;2.60;;;;;;;;;;5075930;28;20201;-84
2022/03/21 03:19:56;;;;;;;3.47;3.17;;;;;;;;;;5075588;28;20215;-84
2022/03/21 03:22:25;;;;;;;3.33;3.03;;;;;;;;;;5075033;28;20320;-83
2022/03/21 03:24:53;;;;;;;5.20;4.15;;;;;;;;;;5075833;28;20201;-82
2022/03/21 03:27:21;;;;;;;4.57;3.95;;;;;;;;;;5075443;28;20220;-84
2022/03/21 03:29:48;;;;;;;3.92;3.60;;;;;;;;;;5075332;28;20208;-84
2022/03/21 03:32:15;;;;;;;3.28;2.97;;;;;;;;;;5074818;28;20228;-84
2022/03/21 03:34:44;;;;;;;3.78;3.45;;;;;;;;;;5075887;28;20685;-84
2022/03/21 03:37:11;;;;;;;4.57;3.95;;;;;;;;;;5075223;28;20566;-84
2022/03/21 03:39:39;;;;;;;4.18;3.65;;;;;;;;;;5075491;28;20200;-84
2022/03/21 03:42:08;;;;;;;4.40;4.00;;;;;;;;;;5075387;28;20217;-83
2022/03/21 03:44:35;;;;;;;4.65;4.25;;;;;;;;;;5075097;28;20211;-85
2022/03/21 03:47:03;;;;;;;4.40;4.00;;;;;;;;;;5075428;28;20201;-83
2022/03/21 03:49:30;;;;;;;4.50;4.10;;;;;;;;;;5075063;28;20571;-83
2022/03/21 03:51:59;;;;;;;3.40;3.10;;;;;;;;;;5075173;28;20213;-84
2022/03/21 03:54:26;;;;;;;4.10;3.70;;;;;;;;;;5075664;28;20208;-84
2022/03/21 03:56:53;;;;;;;5.38;4.60;;;;;;;;;;5075177;28;20209;-85
2022/03/21 03:59:20;;;;;;;4.90;3.90;;;;;;;;;;5075422;28;20254;-83
2022/03/21 04:01:48;;;;;;;5.18;4.57;;;;;;;;;;5074636;28;20201;-84
2022/03/21 04:04:15;;;;;;;5.28;4.80;;;;;;;;;;5074638;28;20205;-83
2022/03/21 04:06:42;;;;;;;4.07;3.75;;;;;;;;;;5074495;28;20208;-83
2022/03/21 04:09:11;;;;;;;5.15;4.65;;;;;;;;;;5074965;28;20228;-83
2022/03/21 04:11:38;;;;;;;6.07;5.47;;;;;;;;;;5074492;28;20207;-84
2022/03/21 04:14:06;;;;;;;4.10;3.70;;;;;;;;;;5075315;28;20590;-83
2022/03/21 04:16:33;;;;;;;4.00;3.60;;;;;;;;;;5075327;28;20201;-83
2022/03/21 04:19:00;;;;;;;4.75;4.22;;;;;;;;;;5075492;28;20201;-83
2022/03/21 04:21:28;;;;;;;4.13;3.63;;;;;;;;;;5075177;28;20205;-85
2022/03/21 04:23:57;;;;;;;4.88;4.05;;;;;;;;;;5074778;28;20545;-83
2022/03/21 04:26:26;;;;;;;4.85;4.35;;;;;;;;;;5074781;28;20207;-83
2022/03/21 04:28:55;;;;;;;4.50;4.10;;;;;;;;;;5074462;28;20225;-84
2022/03/21 04:31:22;;;;;;;4.40;4.00;;;;;;;;;;5074605;28;20228;-85
2022/03/21 04:33:50;;;;;;;5.35;4.85;;;;;;;;;;5074392;28;20678;-83
2022/03/21 04:36:18;;;;;;;4.65;4.25;;;;;;;;;;5074590;28;20205;-82
2022/03/21 04:38:46;;;;;;;4.32;3.92;;;;;;;;;;5074663;28;20321;-83
2022/03/21 04:41:13;;;;;;;4.47;3.70;;;;;;;;;;5074826;28;20205;-83
2022/03/21 04:43:42;;;;;;;4.80;4.30;;;;;;;;;;5074290;28;20235;-84
2022/03/21 04:46:10;;;;;;;4.65;3.90;;;;;;;;;;5074099;28;20246;-83
2022/03/21 04:48:37;;;;;;;3.58;3.28;;;;;;;;;;5075173;28;20221;-83
2022/03/21 04:51:05;;;;;;;4.00;3.50;;;;;;;;;;5075652;28;20201;-83
2022/03/21 04:53:32;;;;;;;3.97;3.67;;;;;;;;;;5075564;28;20606;-84
2022/03/21 04:55:59;;;;;;;4.35;3.95;;;;;;;;;;5074179;28;20204;-83
2022/03/21 04:58:27;;;;;;;4.75;4.35;;;;;;;;;;5074905;28;20246;-83
2022/03/21 05:00:56;;;;;;;5.10;4.32;;;;;;;;;;5074538;28;20291;-82
2022/03/21 05:03:23;;;;;;;4.20;3.80;;;;;;;;;;5074237;28;20216;-83
2022/03/21 05:05:51;;;;;;;4.70;4.30;;;;;;;;;;5074093;28;20732;-83
2022/03/21 05:08:18;;;;;;;4.53;4.13;;;;;;;;;;5074465;28;20225;-83
2022/03/21 05:10:46;;;;;;;7.13;5.53;;;;;;;;;;5074943;28;20619;-84
2022/03/21 05:13:15;;;;;;;5.07;4.68;;;;;;;;;;5078032;28;20220;-85
2022/03/21 05:15:43;;;;;;;4.90;4.50;;;;;;;;;;5077581;28;20205;-83
2022/03/21 05:18:11;;;;;;;4.50;4.07;;;;;;;;;;5078081;28;20193;-84
2022/03/21 05:20:40;;;;;;;4.38;3.97;;;;;;;;;;5078412;28;20279;-83
2022/03/21 05:31:22;;;;;;;4.82;4.18;;;;;;;;;;5078291;28;20599;-84
2022/03/21 05:36:35;;;;;;;6.57;5.45;;;;;;;;;;5077798;28;20270;-82
2022/03/21 05:39:03;;;;;;;5.40;4.90;;;;;;;;;;5078082;28;20205;-83
2022/03/21 05:41:30;;;;;;;6.25;5.65;;;;;;;;;;5077389;28;20200;-83
2022/03/21 05:43:58;;;;;;;5.70;5.10;;;;;;;;;;5078022;28;20208;-83
2022/03/21 05:46:26;;;;;;;5.70;5.20;;;;;;;;;;5077852;28;20204;-81
2022/03/21 05:48:58;;;;;;;5.53;4.97;;;;;;;;;;5085519;28;20324;-80
2022/03/21 05:51:31;;;;;;;5.65;4.93;;;;;;;;;;5089044;28;20226;-78
2022/03/21 05:54:00;;;;;;;6.03;5.43;;;;;;;;;;5088291;28;20205;-79
2022/03/21 05:56:28;;;;;;;4.68;4.00;;;;;;;;;;5088975;28;20209;-78
2022/03/21 05:58:56;;;;;;;4.65;4.25;;;;;;;;;;5089330;28;20265;-79
2022/03/21 06:01:24;;;;;;;5.75;5.32;;;;;;;;;;5088149;28;20538;-79
2022/03/21 06:03:54;;;;;;;4.88;4.45;;;;;;;;;;5086772;28;20237;-80
2022/03/21 06:06:22;;;;;;;6.07;5.55;;;;;;;;;;5079323;28;20208;-80
2022/03/21 06:08:49;;;;;;;5.45;4.93;;;;;;;;;;5079577;28;20221;-80
2022/03/21 06:11:17;;;;;;;4.82;4.43;;;;;;;;;;5078434;28;20204;-80
2022/03/21 06:13:44;;;;;;;4.40;4.00;;;;;;;;;;5078007;28;20729;-80
2022/03/21 06:16:14;;;;;;;4.25;3.85;;;;;;;;;;5077349;28;20266;-80
2022/03/21 06:18:41;;;;;;;4.47;4.07;;;;;;;;;;5078621;28;20233;-80
2022/03/21 06:21:12;;;;;;;5.28;4.30;;;;;;;;;;5076500;28;20199;-80
2022/03/21 06:23:40;;;;;;;5.35;4.90;;;;;;;;;;5076111;28;20221;-80
2022/03/21 06:26:08;;;;;;;3.92;3.53;;;;;;;;;;5086146;28;20201;-79
2022/03/21 06:28:36;;;;;;;4.40;4.00;;;;;;;;;;5091211;28;20197;-80
2022/03/21 06:31:04;;;;;;;5.45;4.63;;;;;;;;;;5089154;28;20201;-79
2022/03/21 06:33:32;;;;;;;6.43;5.78;;;;;;;;;;5092111;28;20225;-79
2022/03/21 06:36:02;;;;;;;7.40;5.82;;;;;;;;;;5091825;28;20208;-79
2022/03/21 06:38:31;;;;;;;5.28;4.88;;;;;;;;;;5083593;28;20208;-81
2022/03/21 06:40:59;;;;;;;6.07;5.53;;;;;;;;;;5077988;28;20200;-80
2022/03/21 06:43:27;;;;;;;5.82;5.22;;;;;;;;;;5076531;28;20217;-81
2022/03/21 06:45:55;;;;;;;6.38;5.72;;;;;;;;;;5075380;28;20201;-81
2022/03/21 06:48:24;;;;;;;7.93;6.60;;;;;;;;;;5076533;28;20669;-81
2022/03/21 06:50:53;;;;;;;8.52;7.10;;;;;;;;;;5077786;28;20700;-80
2022/03/21 06:53:21;;;;;;;8.98;7.57;;;;;;;;;;5070792;28;20274;-81
2022/03/21 06:55:50;;;;;;;9.52;8.60;;;;;;;;;;5069146;28;20212;-80
2022/03/21 06:58:17;;;;;;;10.55;9.45;;;;;;;;;;5070083;28;20209;-80
2022/03/21 07:00:46;;;;;;;9.02;8.13;;;;;;;;;;5069170;28;20209;-80
2022/03/21 07:03:16;;;;;;;11.20;8.20;;;;;;;;;;5070032;28;20229;-79
2022/03/21 07:05:44;;;;;;;8.88;7.68;;;;;;;;;;5070117;28;20232;-79
2022/03/21 07:08:11;;;;;;;7.85;7.05;;;;;;;;;;5076285;28;20200;-80
2022/03/21 07:10:40;;;;;;;7.85;7.10;;;;;;;;;;5076669;28;20315;-80
2022/03/21 07:13:09;;;;;;;9.85;6.30;;;;;;;;;;5076539;28;20229;-81
2022/03/21 07:15:38;;;;;;;9.85;8.40;;;;;;;;;;5077174;28;20216;-80
2022/03/21 07:18:05;;;;;;;7.07;6.40;;;;;;;;;;5076213;28;20201;-81
2022/03/21 07:20:32;;;;;;;8.52;7.47;;;;;;;;;;5075124;28;20201;-80
2022/03/21 07:23:01;;;;;;;9.85;7.50;;;;;;;;;;5074467;28;20724;-80
2022/03/21 07:25:28;;;;;;;9.13;7.65;;;;;;;;;;5075101;28;20213;-80
2022/03/21 07:27:56;;;;;;;7.75;6.57;;;;;;;;;;5079182;28;20205;-81
2022/03/21 07:30:26;;;;;;;9.32;6.93;;;;;;;;;;5074996;28;20225;-82
2022/03/21 07:32:53;;;;;;;7.97;7.18;;;;;;;;;;5074518;28;20233;-82
2022/03/21 07:35:21;;;;;;;7.95;7.05;;;;;;;;;;5074938;28;20653;-80
2022/03/21 07:37:51;;;;;;;8.82;7.93;;;;;;;;;;5074215;28;20615;-81
2022/03/21 07:40:19;;;;;;;9.35;8.45;;;;;;;;;;5075976;28;20298;-81
2022/03/21 07:42:48;;;;;;;8.90;7.65;;;;;;;;;;5074638;28;20724;-81
2022/03/21 07:48:04;;;;;;;6.88;6.22;;;;;;;;;;5074394;28;20220;-81
2022/03/21 07:50:31;;;;;;;9.75;8.48;;;;;;;;;;5075407;28;20228;-81
2022/03/21 07:53:01;;;;;;;8.40;7.47;;;;;;;;;;5073913;28;20236;-81
2022/03/21 07:55:31;;;;;;;7.93;7.22;;;;;;;;;;5075365;28;20209;-82
2022/03/21 07:57:59;;;;;;;7.57;6.78;;;;;;;;;;5075021;28;20258;-81
2022/03/21 08:00:26;;;;;;;8.77;7.38;;;;;;;;;;5074616;28;20208;-81
2022/03/21 08:02:54;;;;;;;8.70;6.93;;;;;;;;;;5074483;28;20313;-81
2022/03/21 08:05:23;;;;;;;7.95;7.07;;;;;;;;;;5074498;28;20216;-82
2022/03/21 08:07:51;;;;;;;8.18;7.30;;;;;;;;;;5074233;28;20208;-81
2022/03/21 08:10:19;;;;;;;8.43;7.53;;;;;;;;;;5075052;28;20724;-80
2022/03/21 08:12:46;;;;;;;8.38;7.43;;;;;;;;;;5073906;28;20286;-83
2022/03/21 08:15:17;;;;;;;8.13;7.35;;;;;;;;;;5075843;28;20204;-81
2022/03/21 08:17:54;;;;;;;8.65;7.45;;;;;;;;;;5076005;28;20211;-81
2022/03/21 08:20:23;;;;;;;8.93;7.70;;;;;;;;;;5075950;28;20200;-82
2022/03/21 08:22:52;;;;;;;7.78;6.70;;;;;;;;;;5068909;28;20221;-82
2022/03/21 08:25:21;;;;;;;7.30;6.35;;;;;;;;;;5069486;28;20209;-81
2022/03/21 08:27:48;;;;;;;8.43;7.55;;;;;;;;;;5079877;28;20235;-81
2022/03/21 08:30:18;;;;;;;8.85;7.35;;;;;;;;;;5075863;28;20231;-82
2022/03/21 08:32:45;;;;;;;7.20;6.50;;;;;;;;;;5074664;28;20225;-81
2022/03/21 08:35:13;;;;;;;7.07;6.38;;;;;;;;;;5074969;28;20211;-82
2022/03/21 08:37:41;;;;;;;6.80;6.18;;;;;;;;;;5074765;28;20193;-81
2022/03/21 08:40:11;;;;;;;6.38;5.38;;;;;;;;;;5074350;28;20201;-81
2022/03/21 08:42:39;;;;;;;6.93;6.32;;;;;;;;;;5074277;28;20224;-82
2022/03/21 08:45:09;;;;;;;7.50;6.50;;;;;;;;;;5074551;28;20240;-81
2022/03/21 08:47:37;;;;;;;6.65;5.60;;;;;;;;;;5075231;28;20641;-81
2022/03/21 08:50:06;;;;;;;6.00;5.18;;;;;;;;;;5074621;28;20212;-82
2022/03/21 08:52:33;;;;;;;6.50;5.10;;;;;;;;;;5074527;28;20228;-82
2022/03/21 08:55:02;;;;;;;5.57;5.07;;;;;;;;;;5076059;28;20216;-82
2022/03/21 08:57:30;;;;;;;4.95;4.53;;;;;;;;;;5074856;28;20258;-82
2022/03/21 08:59:57;;;;;;;6.30;5.72;;;;;;;;;;5074689;28;20216;-82
2022/03/21 09:02:24;;;;;;;4.47;4.10;;;;;;;;;;5075068;28;20224;-80
2022/03/21 09:04:52;;;;;;;8.73;6.03;;;;;;;;;;5074970;28;20746;-82
2022/03/21 09:07:19;;;;;;;7.03;6.32;;;;;;;;;;5079496;28;20205;-81
2022/03/21 09:09:46;;;;;;;5.85;5.30;;;;;;;;;;5074408;28;20707;-81
2022/03/21 09:12:15;;;;;;;5.28;4.40;;;;;;;;;;5073842;28;20232;-82
2022/03/21 09:14:42;;;;;;;5.72;5.20;;;;;;;;;;5074485;28;20281;-81
2022/03/21 09:17:10;;;;;;;5.53;5.13;;;;;;;;;;5074822;28;20708;-83
2022/03/21 09:19:37;;;;;;;7.28;6.60;;;;;;;;;;5074398;28;20205;-82
2022/03/21 09:22:05;;;;;;;7.55;6.80;;;;;;;;;;5073482;28;20229;-82
2022/03/21 09:24:33;;;;;;;6.60;5.90;;;;;;;;;;5074064;28;20216;-81
2022/03/21 09:27:01;;;;;;;7.15;6.35;;;;;;;;;;5076768;28;20556;-81
2022/03/21 09:29:31;;;;;;;7.45;6.22;;;;;;;;;;5074617;28;20201;-82
2022/03/21 09:31:58;;;;;;;8.82;6.70;;;;;;;;;;5074216;28;20315;-83
2022/03/21 09:34:27;;;;;;;7.38;5.85;;;;;;;;;;5074562;28;20212;-82
2022/03/21 09:36:55;;;;;;;7.85;7.15;;;;;;;;;;5074370;28;20228;-81
2022/03/21 09:39:22;;;;;;;9.38;8.35;;;;;;;;;;5074273;28;20239;-85
2022/03/21 09:41:50;;;;;;;8.98;7.50;;;;;;;;;;5074085;28;20556;-82
2022/03/21 09:44:17;;;;;;;7.13;6.07;;;;;;;;;;5072147;28;20745;-83
2022/03/21 09:46:47;;;;;;;8.57;7.78;;;;;;;;;;5073756;28;20676;-83
2022/03/21 09:49:16;;;;;;;7.25;6.55;;;;;;;;;;5074253;28;20239;-83
2022/03/21 09:51:44;;;;;;;6.75;6.05;;;;;;;;;;5074019;28;20251;-82
2022/03/21 09:54:11;;;;;;;5.40;4.90;;;;;;;;;;5074671;28;20583;-83
2022/03/21 09:56:39;;;;;;;7.22;6.57;;;;;;;;;;5075190;28;20208;-83
2022/03/21 09:59:07;;;;;;;6.72;6.13;;;;;;;;;;5077599;28;20209;-83
2022/03/21 10:01:36;;;;;;;6.88;6.13;;;;;;;;;;5077980;28;20197;-83
2022/03/21 10:04:08;;;;;;;6.78;6.15;;;;;;;;;;5078187;28;20750;-83
2022/03/21 10:06:37;;;;;;;6.13;5.35;;;;;;;;;;5078081;28;20209;-83
2022/03/21 10:09:10;;;;;;;5.55;5.05;;;;;;;;;;5077563;28;20204;-83
2022/03/21 10:11:40;;;;;;;6.47;5.63;;;;;;;;;;5077779;28;20312;-82
2022/03/21 10:14:28;;;;;;;7.55;6.75;;;;;;;;;;5077304;28;20653;-83
2022/03/21 10:16:59;;;;;;;7.43;6.70;;;;;;;;;;5071292;28;20228;-83
2022/03/21 10:19:28;;;;;;;6.28;5.70;;;;;;;;;;5077906;28;20205;-83
2022/03/21 10:22:06;;;;;;;6.65;5.70;;;;;;;;;;5078302;28;20232;-82
2022/03/21 10:24:38;;;;;;;7.95;7.03;;;;;;;;;;5077903;28;20292;-83
2022/03/21 10:27:06;;;;;;;8.32;6.85;;;;;;;;;;5079837;28;20197;-83
2022/03/21 10:29:49;;;;;;;7.53;6.78;;;;;;;;;;5078334;28;20236;-84
2022/03/21 10:32:32;;;;;;;7.60;6.90;;;;;;;;;;5077201;28;20229;-82
2022/03/21 10:35:04;;;;;;;7.45;6.28;;;;;;;;;;5075878;28;20239;-83
2022/03/21 10:37:43;;;;;;;6.55;5.95;;;;;;;;;;5071464;28;20208;-83
2022/03/21 10:40:26;;;;;;;6.47;5.25;;;;;;;;;;5077937;28;20211;-83
2022/03/21 10:42:57;;;;;;;6.53;5.80;;;;;;;;;;5077508;28;20235;-81
2022/03/21 10:45:26;;;;;;;6.88;6.18;;;;;;;;;;5077057;28;20691;-81
2022/03/21 10:47:54;;;;;;;5.32;4.82;;;;;;;;;;5077363;28;20213;-82
2022/03/21 10:50:30;;;;;;;6.80;6.20;;;;;;;;;;5077528;28;20204;-82
2022/03/21 10:53:09;;;;;;;6.25;5.50;;;;;;;;;;5077397;28;20643;-82
2022/03/21 10:55:37;;;;;;;7.50;6.85;;;;;;;;;;5076977;28;20211;-82
2022/03/21 10:58:06;;;;;;;6.82;5.82;;;;;;;;;;5077145;28;20201;-81
2022/03/21 11:00:34;;;;;;;7.32;6.55;;;;;;;;;;5076615;28;20227;-81
2022/03/21 11:03:06;;;;;;;7.25;6.55;;;;;;;;;;5076642;28;20720;-82
2022/03/21 11:05:36;;;;;;;6.35;5.80;;;;;;;;;;5077127;28;20637;-81
2022/03/21 11:08:05;;;;;;;5.55;5.03;;;;;;;;;;5076018;28;20236;-81
2022/03/21 11:10:32;;;;;;;5.88;4.95;;;;;;;;;;5076902;28;20201;-82
2022/03/21 11:13:02;;;;;;;6.22;5.55;;;;;;;;;;5076647;28;20232;-81
2022/03/21 11:15:30;;;;;;;6.60;5.47;;;;;;;;;;5076881;28;20232;-81
2022/03/21 11:17:58;;;;;;;5.13;4.68;;;;;;;;;;5077810;28;20201;-82
2022/03/21 11:20:26;;;;;;;6.03;5.47;;;;;;;;;;5077380;28;20205;-81
2022/03/21 11:22:55;;;;;;;4.85;4.38;;;;;;;;;;5077606;28;20292;-82
2022/03/21 11:25:25;;;;;;;4.88;4.47;;;;;;;;;;5078111;28;20651;-83
2022/03/21 11:28:53;;;;;;;6.32;5.72;;;;;;;;;;5079741;28;20204;-84
2022/03/21 11:31:40;;;;;;;6.82;5.47;;;;;;;;;;5080205;28;20204;-83
2022/03/21 11:34:41;;;;;;;6.90;6.20;;;;;;;;;;5078066;28;20205;-83
2022/03/21 11:37:26;;;;;;;8.75;7.90;;;;;;;;;;5077351;28;20292;-82
2022/03/21 11:40:27;;;;;;;8.45;7.65;;;;;;;;;;5076923;28;20234;-83
2022/03/21 11:42:56;;;;;;;7.53;6.82;;;;;;;;;;5077403;28;20597;-83
2022/03/21 11:45:26;;;;;;;8.18;6.22;;;;;;;;;;5077432;28;20215;-83
2022/03/21 11:48:32;;;;;;;6.25;5.70;;;;;;;;;;5077871;28;20209;-83
2022/03/21 11:51:27;;;;;;;6.75;6.10;;;;;;;;;;5078684;28;20208;-82
2022/03/21 11:53:56;;;;;;;6.88;6.22;;;;;;;;;;5071751;28;20259;-82
2022/03/21 11:57:01;;;;;;;6.10;5.47;;;;;;;;;;5077159;28;20213;-83
2022/03/21 11:59:54;;;;;;;5.70;5.20;;;;;;;;;;5076538;28;20215;-81
2022/03/21 12:02:56;;;;;;;5.30;4.80;;;;;;;;;;5076458;28;20228;-82
2022/03/21 12:05:41;;;;;;;4.68;4.28;;;;;;;;;;5075086;28;20217;-84
2022/03/21 12:08:49;;;;;;;5.10;4.60;;;;;;;;;;5076106;28;20235;-83
2022/03/21 12:11:58;;;;;;;5.05;4.55;;;;;;;;;;5078103;28;20209;-84
2022/03/21 12:14:45;;;;;;;5.95;5.18;;;;;;;;;;5070455;28;20259;-84
2022/03/21 12:17:29;;;;;;;5.10;4.60;;;;;;;;;;5075342;28;20559;-83
2022/03/21 12:20:02;;;;;;;3.83;3.53;;;;;;;;;;5076012;28;20208;-83
2022/03/21 12:22:40;;;;;;;4.18;3.65;;;;;;;;;;5070105;28;20220;-83
2022/03/21 12:25:11;;;;;;;4.38;3.97;;;;;;;;;;5076685;28;20208;-82
2022/03/21 12:27:41;;;;;;;5.47;4.90;;;;;;;;;;5076441;28;20197;-82
2022/03/21 12:30:35;;;;;;;5.53;5.13;;;;;;;;;;5076118;28;20205;-83
2022/03/21 12:33:30;;;;;;;5.20;4.70;;;;;;;;;;5076147;28;20221;-82
2022/03/21 12:36:06;;;;;;;5.63;4.65;;;;;;;;;;5069544;28;20212;-82
2022/03/21 12:38:39;;;;;;;5.45;4.97;;;;;;;;;;5075125;28;20236;-81
2022/03/21 12:41:11;;;;;;;5.28;4.78;;;;;;;;;;5076000;28;20213;-81
2022/03/21 12:43:59;;;;;;;3.70;3.40;;;;;;;;;;5075519;28;20772;-82
2022/03/21 12:46:28;;;;;;;4.72;3.92;;;;;;;;;;5071445;28;20239;-82
2022/03/21 12:48:58;;;;;;;4.35;3.95;;;;;;;;;;5076032;28;20274;-83
2022/03/21 12:51:35;;;;;;;4.90;4.05;;;;;;;;;;5075499;28;20287;-80
2022/03/21 12:54:04;;;;;;;4.95;4.45;;;;;;;;;;5076294;28;20258;-83
2022/03/21 12:56:32;;;;;;;5.70;4.63;;;;;;;;;;5075798;28;20212;-81
2022/03/21 12:59:03;;;;;;;6.00;5.50;;;;;;;;;;5075981;28;20288;-82
2022/03/21 13:01:33;;;;;;;11.82;6.85;;;;;;;;;;5075667;28;20236;-83
2022/03/21 13:12:34;;;;;;;5.85;5.22;;;;;;;;;;5076316;28;20232;-83
2022/03/21 13:15:03;;;;;;;5.32;4.70;;;;;;;;;;5070451;28;20240;-83
2022/03/21 13:17:54;;;;;;;6.55;5.88;;;;;;;;;;5069310;28;20212;-83
2022/03/21 13:20:26;;;;;;;5.75;4.80;;;;;;;;;;5077444;28;20220;-83
2022/03/21 13:22:54;;;;;;;4.85;4.45;;;;;;;;;;5079386;28;20209;-81
2022/03/21 13:25:27;;;;;;;4.85;4.35;;;;;;;;;;5079157;28;20205;-82
2022/03/21 13:28:08;;;;;;;6.93;6.30;;;;;;;;;;5074971;28;20212;-81
2022/03/21 13:30:37;;;;;;;6.43;5.82;;;;;;;;;;5072562;28;20212;-81
2022/03/21 13:33:05;;;;;;;5.63;5.13;;;;;;;;;;5078067;28;20254;-81
2022/03/21 13:35:33;;;;;;;5.93;5.38;;;;;;;;;;5078329;28;20205;-82
2022/03/21 13:38:02;;;;;;;5.65;5.05;;;;;;;;;;5078535;28;20594;-84
2022/03/21 13:40:30;;;;;;;4.85;4.45;;;;;;;;;;5080411;28;20201;-83
2022/03/21 13:43:16;;;;;;;5.50;4.97;;;;;;;;;;5080782;28;20228;-83
2022/03/21 13:45:43;;;;;;;5.55;5.00;;;;;;;;;;5079241;28;20236;-83
2022/03/21 13:48:12;;;;;;;5.28;4.78;;;;;;;;;;5078831;28;20657;-82
2022/03/21 13:50:42;;;;;;;6.63;6.03;;;;;;;;;;5080045;28;20208;-83
2022/03/21 13:53:29;;;;;;;5.75;4.97;;;;;;;;;;5078369;28;20306;-83
2022/03/21 13:55:57;;;;;;;5.13;4.63;;;;;;;;;;5079407;28;20258;-83
2022/03/21 13:58:27;;;;;;;5.03;4.53;;;;;;;;;;5078694;28;20201;-81
2022/03/21 14:00:55;;;;;;;4.88;4.38;;;;;;;;;;5078675;28;20201;-83
2022/03/21 14:03:34;;;;;;;4.30;3.90;;;;;;;;;;5078608;28;20221;-83
2022/03/21 14:06:04;;;;;;;6.18;5.57;;;;;;;;;;5079232;28;20201;-83
2022/03/21 14:08:32;;;;;;;5.30;4.80;;;;;;;;;;5078710;28;20213;-83
2022/03/21 14:11:06;;;;;;;7.53;6.53;;;;;;;;;;5078971;28;20291;-83
2022/03/21 14:13:38;;;;;;;7.07;6.25;;;;;;;;;;5077791;28;20232;-83
2022/03/21 14:16:07;;;;;;;6.35;5.10;;;;;;;;;;5078824;28;20201;-82
2022/03/21 14:18:37;;;;;;;5.80;5.30;;;;;;;;;;5079889;28;20201;-82
2022/03/21 14:21:06;;;;;;;5.95;5.40;;;;;;;;;;5078318;28;20193;-82
2022/03/21 14:23:34;;;;;;;4.82;4.32;;;;;;;;;;5078825;28;20221;-83
2022/03/21 14:28:47;;;;;;;4.93;4.53;;;;;;;;;;5077986;28;20211;-83
2022/03/21 14:31:15;;;;;;;4.82;4.43;;;;;;;;;;5077899;28;20201;-83
2022/03/21 14:33:45;;;;;;;5.28;4.78;;;;;;;;;;5077277;28;20302;-83
2022/03/21 14:36:13;;;;;;;6.10;5.55;;;;;;;;;;5077627;28;20209;-82
2022/03/21 14:38:41;;;;;;;5.00;4.50;;;;;;;;;;5079262;28;20205;-83
2022/03/21 14:41:10;;;;;;;5.13;4.63;;;;;;;;;;5078611;28;20280;-81
2022/03/21 14:43:38;;;;;;;6.30;5.60;;;;;;;;;;5076865;28;20251;-82
2022/03/21 14:46:06;;;;;;;6.45;5.85;;;;;;;;;;5078356;28;20205;-83
2022/03/21 14:48:34;;;;;;;6.35;5.72;;;;;;;;;;5078271;28;20209;-84
2022/03/21 14:51:05;;;;;;;4.57;4.18;;;;;;;;;;5078811;28;20201;-82
2022/03/21 14:53:32;;;;;;;6.80;5.65;;;;;;;;;;5077232;28;20290;-82
2022/03/21 14:56:00;;;;;;;5.22;4.57;;;;;;;;;;5078553;28;20677;-83
2022/03/21 14:58:28;;;;;;;5.40;4.90;;;;;;;;;;5077795;28;20212;-83
2022/03/21 15:00:55;;;;;;;4.75;4.25;;;;;;;;;;5078070;28;20213;-82
2022/03/21 15:03:23;;;;;;;4.75;3.95;;;;;;;;;;5077431;28;20225;-81
2022/03/21 15:05:52;;;;;;;5.18;4.72;;;;;;;;;;5080005;28;20569;-83
2022/03/21 15:08:21;;;;;;;4.28;3.88;;;;;;;;;;5078458;28;20672;-82
2022/03/21 15:10:49;;;;;;;4.47;4.07;;;;;;;;;;5078513;28;20558;-82
2022/03/21 15:13:17;;;;;;;4.65;4.25;;;;;;;;;;5077128;28;20236;-81
2022/03/21 15:15:47;;;;;;;5.25;4.75;;;;;;;;;;5078468;28;20236;-81
2022/03/21 15:18:15;;;;;;;4.32;3.92;;;;;;;;;;5079288;28;20647;-82
2022/03/21 15:20:42;;;;;;;4.55;4.15;;;;;;;;;;5078619;28;20211;-82
2022/03/21 15:23:09;;;;;;;5.07;4.53;;;;;;;;;;5077339;28;20229;-82
2022/03/21 15:25:38;;;;;;;3.88;3.58;;;;;;;;;;5077809;28;20689;-82
2022/03/21 15:28:06;;;;;;;4.13;3.72;;;;;;;;;;5078113;28;20296;-82
2022/03/21 15:30:34;;;;;;;3.30;3.00;;;;;;;;;;5079251;28;20228;-82